Tor Viking — SLJT — position and weather

sailwx.info

Track history (hours):
 
Tides and Currents Weather Stations Pressure Air Temp Water Temp Dewpoint Dewpoint Depression Visibility Wind Speed Wind Dir Waves Ship Positions

Tor Viking

Last reported at 2015-Jun-17 08:17 UTC. Time now 2015-Aug-04 13:57 UTC.
Position N 48°39' W 126°26'.
Warning: this ship's position is 48 days out of date.

Length 93 m; draft 7.3 m.

Type: Towing. MMSI: 266004000.

Date/timePositionNaut miles runAvg speedWind from/ knotsBaromVisibWave heightAir tempDewpointWater temp
2015-Jun-17 08:17N 48°39' W 126°26'4 5.4
2015-Jun-17 07:33N 48°38' W 126°20'6 5.6
2015-Jun-17 06:33N 48°37' W 126°12'6 6.2
2015-Jun-17 05:33N 48°34' W 126°03'6 5.9
2015-Jun-17 04:33N 48°32' W 125°55'6 6.1
2015-Jun-17 03:33N 48°32' W 125°46'6 6.0
2015-Jun-17 02:33N 48°32' W 125°37'7 6.7
2015-Jun-17 01:33N 48°33' W 125°27'6 6.1
2015-Jun-17 00:33N 48°32' W 125°17'6 5.9
2015-Jun-16 23:33N 48°32' W 125°09'5 5.3
2015-Jun-16 22:33N 48°31' W 125°01'6 5.7
2015-Jun-16 21:33N 48°31' W 124°52'5 5.1
2015-Jun-16 20:33N 48°31' W 124°45'5 4.5
2015-Jun-16 19:33N 48°29' W 124°38'5 5.4
2015-Jun-16 18:33N 48°27' W 124°31'7 6.7
2015-Jun-16 17:33N 48°25' W 124°21'8 8.2
2015-Jun-16 16:33N 48°22' W 124°10'8 7.9
2015-Jun-16 15:32N 48°18' W 123°59'9 7.8
2015-Jun-16 14:21N 48°17' W 123°45'6 7.0
2015-Jun-16 13:29N 48°16' W 123°36'2 1.4
2015-Jun-16 12:26N 48°16' W 123°34'0 0.0
2015-Jun-16 11:33N 48°16' W 123°34'0 0.0
2015-Jun-16 10:33N 48°16' W 123°34'0 0.0
2015-Jun-16 09:33N 48°16' W 123°34'0 0.0
2015-Jun-16 08:33N 48°16' W 123°34'0 0.0
2015-Jun-16 07:32N 48°16' W 123°34'0 0.0
2015-Jun-16 06:33N 48°16' W 123°34'0 0.0
2015-Jun-16 05:33N 48°16' W 123°34'0 0.0
2015-Jun-16 04:31N 48°16' W 123°34'0 0.1
2015-Jun-16 03:31N 48°16' W 123°34'0 0.0
2015-Jun-16 02:33N 48°16' W 123°34'0 0.0
2015-Jun-16 01:33N 48°16' W 123°34'0 0.0
2015-Jun-16 00:33N 48°16' W 123°34'0 0.0
2015-Jun-15 23:33N 48°16' W 123°34'1 0.7
2015-Jun-15 22:33N 48°16' W 123°33'0 0.1
2015-Jun-15 21:30N 48°16' W 123°33'1 0.9
2015-Jun-15 20:33N 48°16' W 123°34'0 0.0
2015-Jun-15 19:33N 48°16' W 123°34'0 0.0
2015-Jun-15 18:28N 48°16' W 123°34'0 0.0
2015-Jun-15 17:31N 48°16' W 123°34'0 0.0
2015-Jun-15 16:29N 48°16' W 123°34'0 0.0
2015-Jun-15 15:33N 48°16' W 123°34'0 0.0
2015-Jun-15 14:31N 48°16' W 123°34'0 0.0
2015-Jun-15 13:31N 48°16' W 123°34'0 0.0
2015-Jun-15 12:33N 48°16' W 123°34'0 0.1
2015-Jun-15 11:33N 48°17' W 123°34'0 0.1
2015-Jun-15 10:33N 48°17' W 123°34'8 8.2
2015-Jun-15 09:34N 48°12' W 123°23'8 7.4
2015-Jun-15 08:32N 48°12' W 123°12'1312.5
2015-Jun-15 07:30N 48°12' W 122°53'1310.9
2015-Jun-15 06:20N 48°04' W 122°38'911.8
2015-Jun-15 05:33N 47°56' W 122°30'8 8.1
2015-Jun-15 04:33N 47°58' W 122°18'3 3.4
2015-Jun-15 03:33N 47°59' W 122°13'0 0.0
2015-Jun-15 02:31N 47°59' W 122°13'0 0.0
2015-Jun-15 01:31N 47°59' W 122°13'0 0.0
2015-Jun-15 00:31N 47°59' W 122°13'0 0.0
2015-Jun-14 23:31N 47°59' W 122°13'0 0.0
2015-Jun-14 22:31N 47°59' W 122°13'0 0.0
2015-Jun-14 21:31N 47°59' W 122°13'0 0.0
2015-Jun-14 20:25N 47°59' W 122°13'0 0.0
2015-Jun-14 19:31N 47°59' W 122°13'0 0.0
2015-Jun-14 18:31N 47°59' W 122°13'0 0.0
2015-Jun-14 17:31N 47°59' W 122°13'0 0.0
2015-Jun-14 16:31N 47°59' W 122°13'0 0.0
2015-Jun-14 15:31N 47°59' W 122°13'0 0.0
2015-Jun-14 14:31N 47°59' W 122°13'0 0.0
2015-Jun-14 13:31N 47°59' W 122°13'0 0.0
2015-Jun-14 12:31N 47°59' W 122°13'0 0.0
2015-Jun-14 11:31N 47°59' W 122°13'0 0.0
2015-Jun-14 10:31N 47°59' W 122°13'0 0.0
2015-Jun-14 09:31N 47°59' W 122°13'0 0.0
2015-Jun-14 08:31N 47°59' W 122°13'0 0.0
2015-Jun-14 07:31N 47°59' W 122°13'0 0.0
2015-Jun-14 06:31N 47°59' W 122°13'0 0.0
2015-Jun-14 05:31N 47°59' W 122°13'0 0.0
2015-Jun-14 04:31N 47°59' W 122°13'0 0.0
2015-Jun-14 03:31N 47°59' W 122°13'0 0.0
2015-Jun-14 02:31N 47°59' W 122°13'0 0.0
2015-Jun-14 01:31N 47°59' W 122°13'0 0.0
2015-Jun-14 00:31N 47°59' W 122°13'0 0.0
2015-Jun-13 23:25N 47°59' W 122°13'0 0.0
2015-Jun-13 22:31N 47°59' W 122°13'0 0.0
2015-Jun-13 21:31N 47°59' W 122°13'0 0.0
2015-Jun-13 20:31N 47°59' W 122°13'0 0.0
2015-Jun-13 19:31N 47°59' W 122°13'0 0.0
2015-Jun-13 18:33N 47°59' W 122°13'0 0.0
2015-Jun-13 17:33N 47°59' W 122°13'4 4.4
2015-Jun-13 16:33N 47°57' W 122°20'4 4.4
2015-Jun-13 15:33N 47°53' W 122°22'5 4.7
2015-Jun-13 14:33N 47°49' W 122°25'5 4.8
2015-Jun-13 13:33N 47°44' W 122°26'5 5.1
2015-Jun-13 12:33N 47°39' W 122°27'6 5.6
2015-Jun-13 11:33N 47°35' W 122°22'0 0.0
2015-Jun-13 10:32N 47°35' W 122°22'0 0.0
2015-Jun-13 09:32N 47°35' W 122°22'0 0.0
2015-Jun-13 08:29N 47°35' W 122°22'0 0.0
2015-Jun-13 07:29N 47°35' W 122°22'0 0.0
2015-Jun-13 06:26N 47°35' W 122°22'0 0.0
2015-Jun-13 05:23N 47°35' W 122°22'0 0.0
2015-Jun-13 04:23N 47°35' W 122°22'0 0.0
2015-Jun-13 03:20N 47°35' W 122°22'0 0.0
2015-Jun-13 02:32N 47°35' W 122°22'0 0.0
2015-Jun-13 01:32N 47°35' W 122°22'0 0.0
2015-Jun-13 00:29N 47°35' W 122°22'0 0.0
2015-Jun-12 23:29N 47°35' W 122°22'0 0.0
2015-Jun-12 22:23N 47°35' W 122°22'0 0.0
2015-Jun-12 21:23N 47°35' W 122°22'0 0.0
2015-Jun-12 20:23N 47°35' W 122°22'0 0.0
2015-Jun-12 19:32N 47°35' W 122°22'0 0.0
2015-Jun-12 18:32N 47°35' W 122°22'0 0.0
2015-Jun-12 17:32N 47°35' W 122°22'0 0.0
2015-Jun-12 16:26N 47°35' W 122°22'0 0.0
2015-Jun-12 15:29N 47°35' W 122°22'0 0.0
2015-Jun-12 14:26N 47°35' W 122°22'0 0.0
2015-Jun-12 13:26N 47°35' W 122°22'0 0.0
2015-Jun-12 12:29N 47°35' W 122°22'0 0.0
2015-Jun-12 11:32N 47°35' W 122°22'0 0.0
2015-Jun-12 10:32N 47°35' W 122°22'0 0.0
2015-Jun-12 09:32N 47°35' W 122°22'0 0.0
2015-Jun-12 08:32N 47°35' W 122°22'0 0.0
2015-Jun-12 07:29N 47°35' W 122°22'0 0.0
2015-Jun-12 06:32N 47°35' W 122°22'0 0.0
2015-Jun-12 05:26N 47°35' W 122°22'0 0.0
2015-Jun-12 04:23N 47°35' W 122°22'0 0.0
2015-Jun-12 03:20N 47°35' W 122°22'0 0.0
2015-Jun-12 02:32N 47°35' W 122°22'0 0.0
2015-Jun-12 01:32N 47°35' W 122°22'0 0.0
2015-Jun-12 00:29N 47°35' W 122°22'0 0.0
2015-Jun-11 23:29N 47°35' W 122°22'0 0.0
2015-Jun-11 22:26N 47°35' W 122°22'0 0.0
2015-Jun-11 21:23N 47°35' W 122°22'0 0.0
2015-Jun-11 20:32N 47°35' W 122°22'0 0.0
2015-Jun-11 19:32N 47°35' W 122°22'0 0.0
2015-Jun-11 18:32N 47°35' W 122°22'0 0.0
2015-Jun-11 17:32N 47°35' W 122°22'0 0.0
2015-Jun-11 16:32N 47°35' W 122°22'0 0.0
2015-Jun-11 15:29N 47°35' W 122°22'0 0.0
2015-Jun-11 14:26N 47°35' W 122°22'0 0.0
2015-Jun-11 13:26N 47°35' W 122°22'0 0.0
2015-Jun-11 12:32N 47°35' W 122°22'0 0.0
2015-Jun-11 11:32N 47°35' W 122°22'0 0.0
2015-Jun-11 10:32N 47°35' W 122°22'0 0.0
2015-Jun-11 09:32N 47°35' W 122°22'0 0.0
2015-Jun-11 08:32N 47°35' W 122°22'0 0.0
2015-Jun-11 07:29N 47°35' W 122°22'0 0.0
2015-Jun-11 06:26N 47°35' W 122°22'0 0.0
2015-Jun-11 05:26N 47°35' W 122°22'0 0.0
2015-Jun-11 04:32N 47°35' W 122°22'0 0.0
2015-Jun-11 03:32N 47°35' W 122°22'0 0.0
2015-Jun-11 02:32N 47°35' W 122°22'0 0.0
2015-Jun-11 01:32N 47°35' W 122°22'0 0.0
2015-Jun-11 00:32N 47°35' W 122°22'0 0.0
2015-Jun-10 23:26N 47°35' W 122°22'0 0.0
2015-Jun-10 22:26N 47°35' W 122°22'0 0.0
2015-Jun-10 21:26N 47°35' W 122°22'0 0.0
2015-Jun-10 20:32N 47°35' W 122°22'0 0.0
2015-Jun-10 19:32N 47°35' W 122°22'0 0.0
2015-Jun-10 18:32N 47°35' W 122°22'0 0.0
2015-Jun-10 17:32N 47°35' W 122°22'0 0.0
2015-Jun-10 16:32N 47°35' W 122°22'0 0.0
2015-Jun-10 15:29N 47°35' W 122°22'0 0.0
2015-Jun-10 14:26N 47°35' W 122°22'0 0.0
2015-Jun-10 13:26N 47°35' W 122°22'0 0.0
2015-Jun-10 12:32N 47°35' W 122°22'0 0.0
2015-Jun-10 11:32N 47°35' W 122°22'0 0.0
2015-Jun-10 10:32N 47°35' W 122°22'0 0.0
2015-Jun-10 09:32N 47°35' W 122°22'0 0.0
2015-Jun-10 08:32N 47°35' W 122°22'0 0.0
2015-Jun-10 07:29N 47°35' W 122°22'0 0.0
2015-Jun-10 06:32N 47°35' W 122°22'0 0.0
2015-Jun-10 05:32N 47°35' W 122°22'0 0.0
2015-Jun-10 04:32N 47°35' W 122°22'0 0.0
2015-Jun-10 03:26N 47°35' W 122°22'0 0.0
2015-Jun-10 02:23N 47°35' W 122°22'0 0.0
2015-Jun-10 01:32N 47°35' W 122°22'0 0.0
2015-Jun-10 00:32N 47°35' W 122°22'0 0.0
2015-Jun-09 23:32N 47°35' W 122°22'0 0.0
2015-Jun-09 22:32N 47°35' W 122°22'0 0.0
2015-Jun-09 21:32N 47°35' W 122°22'0 0.0
2015-Jun-09 20:29N 47°35' W 122°22'0 0.0
2015-Jun-09 19:26N 47°35' W 122°22'0 0.0
2015-Jun-09 18:23N 47°35' W 122°22'0 0.0
2015-Jun-09 17:32N 47°35' W 122°22'0 0.0
2015-Jun-09 16:32N 47°35' W 122°22'0 0.0
2015-Jun-09 15:32N 47°35' W 122°22'0 0.0
2015-Jun-09 14:32N 47°35' W 122°22'0 0.0
2015-Jun-09 13:32N 47°35' W 122°22'0 0.0
2015-Jun-09 12:32N 47°35' W 122°22'0 0.0
2015-Jun-09 11:32N 47°35' W 122°22'0 0.0
2015-Jun-09 10:32N 47°35' W 122°22'0 0.0
2015-Jun-09 09:32N 47°35' W 122°22'0 0.0
2015-Jun-09 08:32N 47°35' W 122°22'0 0.0
2015-Jun-09 07:32N 47°35' W 122°22'0 0.0
2015-Jun-09 06:32N 47°35' W 122°22'0 0.0
2015-Jun-09 05:29N 47°35' W 122°22'0 0.0
2015-Jun-09 04:29N 47°35' W 122°22'0 0.0
2015-Jun-09 03:32N 47°35' W 122°22'0 0.0
2015-Jun-09 02:32N 47°35' W 122°22'0 0.0
2015-Jun-09 01:32N 47°35' W 122°22'0 0.0
2015-Jun-09 00:32N 47°35' W 122°22'0 0.0
2015-Jun-08 23:32N 47°35' W 122°22'0 0.0
2015-Jun-08 22:32N 47°35' W 122°22'0 0.0
2015-Jun-08 21:29N 47°35' W 122°22'0 0.0
2015-Jun-08 20:26N 47°35' W 122°22'0 0.0
2015-Jun-08 19:32N 47°35' W 122°22'0 0.0
2015-Jun-08 18:32N 47°35' W 122°22'0 0.0
2015-Jun-08 17:32N 47°35' W 122°22'0 0.0
2015-Jun-08 16:32N 47°35' W 122°22'0 0.0
2015-Jun-08 15:32N 47°35' W 122°22'0 0.0
2015-Jun-08 14:32N 47°35' W 122°22'0 0.0
2015-Jun-08 13:29N 47°35' W 122°22'0 0.0
2015-Jun-08 12:32N 47°35' W 122°22'0 0.0
2015-Jun-08 11:32N 47°35' W 122°22'0 0.0
2015-Jun-08 10:32N 47°35' W 122°22'0 0.0
2015-Jun-08 09:32N 47°35' W 122°22'0 0.0
2015-Jun-08 08:32N 47°35' W 122°22'0 0.0
2015-Jun-08 07:32N 47°35' W 122°22'0 0.0
2015-Jun-08 06:32N 47°35' W 122°22'0 0.0
2015-Jun-08 05:29N 47°35' W 122°22'0 0.0
2015-Jun-08 04:32N 47°35' W 122°22'0 0.0
2015-Jun-08 03:32N 47°35' W 122°22'0 0.0
2015-Jun-08 02:32N 47°35' W 122°22'0 0.0
2015-Jun-08 01:32N 47°35' W 122°22'0 0.0
2015-Jun-08 00:32N 47°35' W 122°22'0 0.0
2015-Jun-07 23:26N 47°35' W 122°22'0 0.0
2015-Jun-07 22:32N 47°35' W 122°22'0 0.0
2015-Jun-07 21:29N 47°35' W 122°22'0 0.0
2015-Jun-07 20:32N 47°35' W 122°22'0 0.0
2015-Jun-07 19:32N 47°35' W 122°22'0 0.0
2015-Jun-07 18:32N 47°35' W 122°22'0 0.0
2015-Jun-07 17:32N 47°35' W 122°22'0 0.0
2015-Jun-07 16:32N 47°35' W 122°22'0 0.0
2015-Jun-07 15:32N 47°35' W 122°22'0 0.0
2015-Jun-07 14:32N 47°35' W 122°22'0 0.0
2015-Jun-07 13:14N 47°35' W 122°22'0 0.0
2015-Jun-07 12:32N 47°35' W 122°22'0 0.0
2015-Jun-07 11:32N 47°35' W 122°22'0 0.0
2015-Jun-07 10:14N 47°35' W 122°22'0 0.0
2015-Jun-07 09:32N 47°35' W 122°22'0 0.0
2015-Jun-07 08:32N 47°35' W 122°22'  
Track history (hours):
 
Tides and Currents Weather Stations Pressure Air Temp Water Temp Dewpoint Dewpoint Depression Visibility Wind Speed Wind Dir Waves Ship Positions

Tor Viking

Last reported at 2015-Jun-17 08:17 UTC. Time now 2015-Aug-04 13:57 UTC.
Position N 48°39' W 126°26'.
Warning: this ship's position is 48 days out of date.

Length 93 m; draft 7.3 m.

Type: Towing. MMSI: 266004000.

Date/timePositionNaut miles runAvg speedWind from/ knotsBaromVisibWave heightAir tempDewpointWater temp
2015-Jun-17 08:17N 48°39' W 126°26'4 5.4
2015-Jun-17 07:33N 48°38' W 126°20'6 5.6
2015-Jun-17 06:33N 48°37' W 126°12'6 6.2
2015-Jun-17 05:33N 48°34' W 126°03'6 5.9
2015-Jun-17 04:33N 48°32' W 125°55'6 6.1
2015-Jun-17 03:33N 48°32' W 125°46'6 6.0
2015-Jun-17 02:33N 48°32' W 125°37'7 6.7
2015-Jun-17 01:33N 48°33' W 125°27'6 6.1
2015-Jun-17 00:33N 48°32' W 125°17'6 5.9
2015-Jun-16 23:33N 48°32' W 125°09'5 5.3
2015-Jun-16 22:33N 48°31' W 125°01'6 5.7
2015-Jun-16 21:33N 48°31' W 124°52'5 5.1
2015-Jun-16 20:33N 48°31' W 124°45'5 4.5
2015-Jun-16 19:33N 48°29' W 124°38'5 5.4
2015-Jun-16 18:33N 48°27' W 124°31'7 6.7
2015-Jun-16 17:33N 48°25' W 124°21'8 8.2
2015-Jun-16 16:33N 48°22' W 124°10'8 7.9
2015-Jun-16 15:32N 48°18' W 123°59'9 7.8
2015-Jun-16 14:21N 48°17' W 123°45'6 7.0
2015-Jun-16 13:29N 48°16' W 123°36'2 1.4
2015-Jun-16 12:26N 48°16' W 123°34'0 0.0
2015-Jun-16 11:33N 48°16' W 123°34'0 0.0
2015-Jun-16 10:33N 48°16' W 123°34'0 0.0
2015-Jun-16 09:33N 48°16' W 123°34'0 0.0
2015-Jun-16 08:33N 48°16' W 123°34'0 0.0
2015-Jun-16 07:32N 48°16' W 123°34'0 0.0
2015-Jun-16 06:33N 48°16' W 123°34'0 0.0
2015-Jun-16 05:33N 48°16' W 123°34'0 0.0
2015-Jun-16 04:31N 48°16' W 123°34'0 0.1
2015-Jun-16 03:31N 48°16' W 123°34'0 0.0
2015-Jun-16 02:33N 48°16' W 123°34'0 0.0
2015-Jun-16 01:33N 48°16' W 123°34'0 0.0
2015-Jun-16 00:33N 48°16' W 123°34'0 0.0
2015-Jun-15 23:33N 48°16' W 123°34'1 0.7
2015-Jun-15 22:33N 48°16' W 123°33'0 0.1
2015-Jun-15 21:30N 48°16' W 123°33'1 0.9
2015-Jun-15 20:33N 48°16' W 123°34'0 0.0
2015-Jun-15 19:33N 48°16' W 123°34'0 0.0
2015-Jun-15 18:28N 48°16' W 123°34'0 0.0
2015-Jun-15 17:31N 48°16' W 123°34'0 0.0
2015-Jun-15 16:29N 48°16' W 123°34'0 0.0
2015-Jun-15 15:33N 48°16' W 123°34'0 0.0
2015-Jun-15 14:31N 48°16' W 123°34'0 0.0
2015-Jun-15 13:31N 48°16' W 123°34'0 0.0
2015-Jun-15 12:33N 48°16' W 123°34'0 0.1
2015-Jun-15 11:33N 48°17' W 123°34'0 0.1
2015-Jun-15 10:33N 48°17' W 123°34'8 8.2
2015-Jun-15 09:34N 48°12' W 123°23'8 7.4
2015-Jun-15 08:32N 48°12' W 123°12'1312.5
2015-Jun-15 07:30N 48°12' W 122°53'1310.9
2015-Jun-15 06:20N 48°04' W 122°38'911.8
2015-Jun-15 05:33N 47°56' W 122°30'8 8.1
2015-Jun-15 04:33N 47°58' W 122°18'3 3.4
2015-Jun-15 03:33N 47°59' W 122°13'0 0.0
2015-Jun-15 02:31N 47°59' W 122°13'0 0.0
2015-Jun-15 01:31N 47°59' W 122°13'0 0.0
2015-Jun-15 00:31N 47°59' W 122°13'0 0.0
2015-Jun-14 23:31N 47°59' W 122°13'0 0.0
2015-Jun-14 22:31N 47°59' W 122°13'0 0.0
2015-Jun-14 21:31N 47°59' W 122°13'0 0.0
2015-Jun-14 20:25N 47°59' W 122°13'0 0.0
2015-Jun-14 19:31N 47°59' W 122°13'0 0.0
2015-Jun-14 18:31N 47°59' W 122°13'0 0.0
2015-Jun-14 17:31N 47°59' W 122°13'0 0.0
2015-Jun-14 16:31N 47°59' W 122°13'0 0.0
2015-Jun-14 15:31N 47°59' W 122°13'0 0.0
2015-Jun-14 14:31N 47°59' W 122°13'0 0.0
2015-Jun-14 13:31N 47°59' W 122°13'0 0.0
2015-Jun-14 12:31N 47°59' W 122°13'0 0.0
2015-Jun-14 11:31N 47°59' W 122°13'0 0.0
2015-Jun-14 10:31N 47°59' W 122°13'0 0.0
2015-Jun-14 09:31N 47°59' W 122°13'0 0.0
2015-Jun-14 08:31N 47°59' W 122°13'0 0.0
2015-Jun-14 07:31N 47°59' W 122°13'0 0.0
2015-Jun-14 06:31N 47°59' W 122°13'0 0.0
2015-Jun-14 05:31N 47°59' W 122°13'0 0.0
2015-Jun-14 04:31N 47°59' W 122°13'0 0.0
2015-Jun-14 03:31N 47°59' W 122°13'0 0.0
2015-Jun-14 02:31N 47°59' W 122°13'0 0.0
2015-Jun-14 01:31N 47°59' W 122°13'0 0.0
2015-Jun-14 00:31N 47°59' W 122°13'0 0.0
2015-Jun-13 23:25N 47°59' W 122°13'0 0.0
2015-Jun-13 22:31N 47°59' W 122°13'0 0.0
2015-Jun-13 21:31N 47°59' W 122°13'0 0.0
2015-Jun-13 20:31N 47°59' W 122°13'0 0.0
2015-Jun-13 19:31N 47°59' W 122°13'0 0.0
2015-Jun-13 18:33N 47°59' W 122°13'0 0.0
2015-Jun-13 17:33N 47°59' W 122°13'4 4.4
2015-Jun-13 16:33N 47°57' W 122°20'4 4.4
2015-Jun-13 15:33N 47°53' W 122°22'5 4.7
2015-Jun-13 14:33N 47°49' W 122°25'5 4.8
2015-Jun-13 13:33N 47°44' W 122°26'5 5.1
2015-Jun-13 12:33N 47°39' W 122°27'6 5.6
2015-Jun-13 11:33N 47°35' W 122°22'0 0.0
2015-Jun-13 10:32N 47°35' W 122°22'0 0.0
2015-Jun-13 09:32N 47°35' W 122°22'0 0.0
2015-Jun-13 08:29N 47°35' W 122°22'0 0.0
2015-Jun-13 07:29N 47°35' W 122°22'0 0.0
2015-Jun-13 06:26N 47°35' W 122°22'0 0.0
2015-Jun-13 05:23N 47°35' W 122°22'0 0.0
2015-Jun-13 04:23N 47°35' W 122°22'0 0.0
2015-Jun-13 03:20N 47°35' W 122°22'0 0.0
2015-Jun-13 02:32N 47°35' W 122°22'0 0.0
2015-Jun-13 01:32N 47°35' W 122°22'0 0.0
2015-Jun-13 00:29N 47°35' W 122°22'0 0.0
2015-Jun-12 23:29N 47°35' W 122°22'0 0.0
2015-Jun-12 22:23N 47°35' W 122°22'0 0.0
2015-Jun-12 21:23N 47°35' W 122°22'0 0.0
2015-Jun-12 20:23N 47°35' W 122°22'0 0.0
2015-Jun-12 19:32N 47°35' W 122°22'0 0.0
2015-Jun-12 18:32N 47°35' W 122°22'0 0.0
2015-Jun-12 17:32N 47°35' W 122°22'0 0.0
2015-Jun-12 16:26N 47°35' W 122°22'0 0.0
2015-Jun-12 15:29N 47°35' W 122°22'0 0.0
2015-Jun-12 14:26N 47°35' W 122°22'0 0.0
2015-Jun-12 13:26N 47°35' W 122°22'0 0.0
2015-Jun-12 12:29N 47°35' W 122°22'0 0.0
2015-Jun-12 11:32N 47°35' W 122°22'0 0.0
2015-Jun-12 10:32N 47°35' W 122°22'0 0.0
2015-Jun-12 09:32N 47°35' W 122°22'0 0.0
2015-Jun-12 08:32N 47°35' W 122°22'0 0.0
2015-Jun-12 07:29N 47°35' W 122°22'0 0.0
2015-Jun-12 06:32N 47°35' W 122°22'0 0.0
2015-Jun-12 05:26N 47°35' W 122°22'0 0.0
2015-Jun-12 04:23N 47°35' W 122°22'0 0.0
2015-Jun-12 03:20N 47°35' W 122°22'0 0.0
2015-Jun-12 02:32N 47°35' W 122°22'0 0.0
2015-Jun-12 01:32N 47°35' W 122°22'0 0.0
2015-Jun-12 00:29N 47°35' W 122°22'0 0.0
2015-Jun-11 23:29N 47°35' W 122°22'0 0.0
2015-Jun-11 22:26N 47°35' W 122°22'0 0.0
2015-Jun-11 21:23N 47°35' W 122°22'0 0.0
2015-Jun-11 20:32N 47°35' W 122°22'0 0.0
2015-Jun-11 19:32N 47°35' W 122°22'0 0.0
2015-Jun-11 18:32N 47°35' W 122°22'0 0.0
2015-Jun-11 17:32N 47°35' W 122°22'0 0.0
2015-Jun-11 16:32N 47°35' W 122°22'0 0.0
2015-Jun-11 15:29N 47°35' W 122°22'0 0.0
2015-Jun-11 14:26N 47°35' W 122°22'0 0.0
2015-Jun-11 13:26N 47°35' W 122°22'0 0.0
2015-Jun-11 12:32N 47°35' W 122°22'0 0.0
2015-Jun-11 11:32N 47°35' W 122°22'0 0.0
2015-Jun-11 10:32N 47°35' W 122°22'0 0.0
2015-Jun-11 09:32N 47°35' W 122°22'0 0.0
2015-Jun-11 08:32N 47°35' W 122°22'0 0.0
2015-Jun-11 07:29N 47°35' W 122°22'0 0.0
2015-Jun-11 06:26N 47°35' W 122°22'0 0.0
2015-Jun-11 05:26N 47°35' W 122°22'0 0.0
2015-Jun-11 04:32N 47°35' W 122°22'0 0.0
2015-Jun-11 03:32N 47°35' W 122°22'0 0.0
2015-Jun-11 02:32N 47°35' W 122°22'0 0.0
2015-Jun-11 01:32N 47°35' W 122°22'0 0.0
2015-Jun-11 00:32N 47°35' W 122°22'0 0.0
2015-Jun-10 23:26N 47°35' W 122°22'0 0.0
2015-Jun-10 22:26N 47°35' W 122°22'0 0.0
2015-Jun-10 21:26N 47°35' W 122°22'0 0.0
2015-Jun-10 20:32N 47°35' W 122°22'0 0.0
2015-Jun-10 19:32N 47°35' W 122°22'0 0.0
2015-Jun-10 18:32N 47°35' W 122°22'0 0.0
2015-Jun-10 17:32N 47°35' W 122°22'0 0.0
2015-Jun-10 16:32N 47°35' W 122°22'0 0.0
2015-Jun-10 15:29N 47°35' W 122°22'0 0.0
2015-Jun-10 14:26N 47°35' W 122°22'0 0.0
2015-Jun-10 13:26N 47°35' W 122°22'0 0.0
2015-Jun-10 12:32N 47°35' W 122°22'0 0.0
2015-Jun-10 11:32N 47°35' W 122°22'0 0.0
2015-Jun-10 10:32N 47°35' W 122°22'0 0.0
2015-Jun-10 09:32N 47°35' W 122°22'0 0.0
2015-Jun-10 08:32N 47°35' W 122°22'0 0.0
2015-Jun-10 07:29N 47°35' W 122°22'0 0.0
2015-Jun-10 06:32N 47°35' W 122°22'0 0.0
2015-Jun-10 05:32N 47°35' W 122°22'0 0.0
2015-Jun-10 04:32N 47°35' W 122°22'0 0.0
2015-Jun-10 03:26N 47°35' W 122°22'0 0.0
2015-Jun-10 02:23N 47°35' W 122°22'0 0.0
2015-Jun-10 01:32N 47°35' W 122°22'0 0.0
2015-Jun-10 00:32N 47°35' W 122°22'0 0.0
2015-Jun-09 23:32N 47°35' W 122°22'0 0.0
2015-Jun-09 22:32N 47°35' W 122°22'0 0.0
2015-Jun-09 21:32N 47°35' W 122°22'0 0.0
2015-Jun-09 20:29N 47°35' W 122°22'0 0.0
2015-Jun-09 19:26N 47°35' W 122°22'0 0.0
2015-Jun-09 18:23N 47°35' W 122°22'0 0.0
2015-Jun-09 17:32N 47°35' W 122°22'0 0.0
2015-Jun-09 16:32N 47°35' W 122°22'0 0.0
2015-Jun-09 15:32N 47°35' W 122°22'0 0.0
2015-Jun-09 14:32N 47°35' W 122°22'0 0.0
2015-Jun-09 13:32N 47°35' W 122°22'0 0.0
2015-Jun-09 12:32N 47°35' W 122°22'0 0.0
2015-Jun-09 11:32N 47°35' W 122°22'0 0.0
2015-Jun-09 10:32N 47°35' W 122°22'0 0.0
2015-Jun-09 09:32N 47°35' W 122°22'0 0.0
2015-Jun-09 08:32N 47°35' W 122°22'0 0.0
2015-Jun-09 07:32N 47°35' W 122°22'0 0.0
2015-Jun-09 06:32N 47°35' W 122°22'0 0.0
2015-Jun-09 05:29N 47°35' W 122°22'0 0.0
2015-Jun-09 04:29N 47°35' W 122°22'0 0.0
2015-Jun-09 03:32N 47°35' W 122°22'0 0.0
2015-Jun-09 02:32N 47°35' W 122°22'0 0.0
2015-Jun-09 01:32N 47°35' W 122°22'0 0.0
2015-Jun-09 00:32N 47°35' W 122°22'0 0.0
2015-Jun-08 23:32N 47°35' W 122°22'0 0.0
2015-Jun-08 22:32N 47°35' W 122°22'0 0.0
2015-Jun-08 21:29N 47°35' W 122°22'0 0.0
2015-Jun-08 20:26N 47°35' W 122°22'0 0.0
2015-Jun-08 19:32N 47°35' W 122°22'0 0.0
2015-Jun-08 18:32N 47°35' W 122°22'0 0.0
2015-Jun-08 17:32N 47°35' W 122°22'0 0.0
2015-Jun-08 16:32N 47°35' W 122°22'0 0.0
2015-Jun-08 15:32N 47°35' W 122°22'0 0.0
2015-Jun-08 14:32N 47°35' W 122°22'0 0.0
2015-Jun-08 13:29N 47°35' W 122°22'0 0.0
2015-Jun-08 12:32N 47°35' W 122°22'0 0.0
2015-Jun-08 11:32N 47°35' W 122°22'0 0.0
2015-Jun-08 10:32N 47°35' W 122°22'0 0.0
2015-Jun-08 09:32N 47°35' W 122°22'0 0.0
2015-Jun-08 08:32N 47°35' W 122°22'0 0.0
2015-Jun-08 07:32N 47°35' W 122°22'0 0.0
2015-Jun-08 06:32N 47°35' W 122°22'0 0.0
2015-Jun-08 05:29N 47°35' W 122°22'0 0.0
2015-Jun-08 04:32N 47°35' W 122°22'0 0.0
2015-Jun-08 03:32N 47°35' W 122°22'0 0.0
2015-Jun-08 02:32N 47°35' W 122°22'0 0.0
2015-Jun-08 01:32N 47°35' W 122°22'0 0.0
2015-Jun-08 00:32N 47°35' W 122°22'0 0.0
2015-Jun-07 23:26N 47°35' W 122°22'0 0.0
2015-Jun-07 22:32N 47°35' W 122°22'0 0.0
2015-Jun-07 21:29N 47°35' W 122°22'0 0.0
2015-Jun-07 20:32N 47°35' W 122°22'0 0.0
2015-Jun-07 19:32N 47°35' W 122°22'0 0.0
2015-Jun-07 18:32N 47°35' W 122°22'0 0.0
2015-Jun-07 17:32N 47°35' W 122°22'0 0.0
2015-Jun-07 16:32N 47°35' W 122°22'0 0.0
2015-Jun-07 15:32N 47°35' W 122°22'0 0.0
2015-Jun-07 14:32N 47°35' W 122°22'0 0.0
2015-Jun-07 13:14N 47°35' W 122°22'0 0.0
2015-Jun-07 12:32N 47°35' W 122°22'0 0.0
2015-Jun-07 11:32N 47°35' W 122°22'0 0.0
2015-Jun-07 10:14N 47°35' W 122°22'0 0.0
2015-Jun-07 09:32N 47°35' W 122°22'0 0.0
2015-Jun-07 08:32N 47°35' W 122°22'  

Dump ship's entire track history